Relevés horaires Gösgen (Suisse)


Relevés horaires à Gösgen - Dimanche 01 Juill. 2018
Heure UTC1 Température [°C] Vent [km/h] Hum. [%] Pres.4 [hPa] Visi. [Km] Nébu. [octa] Préc.5 [mm] Cond.
2m. Res. Ros. Dir.2 Vit. Moy. Raf.3
23:00 20.7 20.7 10.1 E 7.4 -- -- 51 1012.1 -- -- -- --
22:00 22.2 22.2 10.8 ENE 9.3 -- -- 48 1011.8 -- -- -- --
21:00 23.4 23.4 11.5 ENE 11.1 -- 29.6 47 1011.3 -- -- -- --
20:00 24.3 24.3 12.1 ENE 9.3 -- -- 46 967.6 -- -- -- --
19:00 25.5 25.5 12.9 ENE 9.3 -- -- 46 1009.9 -- -- -- --
18:00 27.4 27.4 13.8 E 11.1 -- 27.8 43 1009.3 -- -- 0/12h
--
17:00 28.7 28.7 13.5 NE 13.0 -- -- 39 1008.9 -- -- -- --
16:00 29.2 29.2 13.7 NE 14.8 -- -- 39 1009.1 -- -- -- --
15:00 29.8 29.8 13.4 NNE 13.0 -- 27.8 37 1009.1 -- -- -- --
14:00 29.3 29.3 13.9 E 11.1 -- -- 39 1009.5 -- -- -- --
13:00 29.4 29.4 14.3 ENE 11.1 -- -- 40 1009.9 -- -- -- --
12:00 28.2 28.2 13.4 NE 13.0 -- 25.9 40 1010.7 -- -- 0/6h
--
11:00 27.0 27.0 14.3 NE 11.1 -- -- 46 1011.3 -- -- -- --
10:00 25.3 25.3 13.0 ENE 11.1 -- -- 46 1011.8 -- -- -- --
09:00 23.3 23.3 12.2 ENE 11.1 -- 20.4 50 1012.4 -- -- -- --
08:00 22.2 22.2 12.1 E 9.3 -- -- 53 1012.5 -- -- -- --
07:00 20.9 20.9 12.0 E 9.3 -- -- 57 1012.9 -- -- -- --
06:00 20.0 20.0 11.7 E 9.3 -- 16.7 59 1013 -- -- 0/12h
0/24h
--
05:00 17.8 17.8 15.2 ESE 1.9 -- -- 85 1012.9 -- -- -- --
04:00 15.6 15.6 13.7 NNO 0.0 -- -- 88 1013 -- -- -- --
03:00 15.6 15.6 13.7 OSO 0.0 -- 5.6 88 1012.7 -- -- -- --
02:00 15.9 15.9 14.0 NNO 0.0 -- -- 88 1012.6 -- -- -- --
01:00 17.0 17.0 14.6 O 0.0 -- -- 86 1012.4 -- -- -- --
00:00 16.8 16.8 14.5 NNO 0.0 -- 9.3 86 1012.4 -- -- 0/6h
--

1 Coordinated Universal Time. Actuellement il est 18:00 locale et 16:00 UTC.

2 Le vent souffle depuis la direction indiquée vers la direction oposée.

3 Les rafales max. sont disponible 40 min après l'heure du relevé.

4 Pour les stations d'altitude (plus de 600m) le géopotentiel du niveau le plus proche de la pression obligatoire est indiqué.

5 Les stations disposant d'un diffuseur peuvent indiquer "trace". Cela signifie que des précipitations ont touchés le sol mais que la quantité est inférieure à 0.1 mm.

Récapitulatif de la journée
Température [°C] Vent [km/h] Ensoleillement4 [h] Precipitations totale5 [mm] Pression [Hpa]
Min1 Max.2 Moy.3 Max. Min Max.
14.9 30.2 0 29.6 14 h 18 min 0 967.6 1013.0

1 Température minimale relevée entre 18:00 UTC la veille et 18:00 UTC le jour donné.

2 Température maximale relevée entre 06:00 UTC le jour donné et 06:00 UTC le lendemain.

3 Vent moyen de la journée basé sur les relevés horaires.

4 Ensoleillement en heures relevé entre 06:00 UTC la veille et 06:00 UTC le jour donné.

5 Précipitations totales tombées entre 06:00 UTC la jour donné et 06:00 UTC le lendemain.

Graphiques horaires